To NAV CANADA Home Page Login to a new session Search on AWWS site Disclaimer Vers la page française équivalente Tips FAQ What's new on the site To the Forecasts and Observations / NOTAM section To "File a Flight Plan" website Publications and other links Update of the User's profile FIC Telephone Numbers My Weather Data Folder Route Weather Data Regional Weather Data Local Weather Data To the Forecasts and Observations / NOTAM section
Request Generated 04/24/2019 at 16:00:26 UTC . Weather information available at that time is displayed.

METAR/TAF

CHESTERFIELD INLET/NU    

SPECI CYCS 241530Z 09011KT 1 1/2SM -SN OVC019 M05/M07 A2956 RMK SN4ST4 SLP012=
METAR CYCS 241500Z 10013KT 2SM -SN DRSN OVC012 M06/M07 A2957 RMK SN4ST4 SLP016=
SPECI CYCS 241418Z 11012G17KT 3SM -SN DRSN OVC010 M06/M07 A2959 RMK SN3ST5 SLP023=
METAR CYCS 241400Z 09012KT 2 1/2SM -SN DRSN OVC020 M06/M07 A2959 RMK SN4ST4 SLP022=
METAR CYCS 241300Z 11012KT 2 1/2SM -SN DRSN OVC025 M06/M07 A2962 RMK SN4SC4 SLP032=

CYCS - No TAF is issued for this station

Your time UTC time
Weather data provided by Environment Canada and NAV CANADA